Time;durP1;ratioP1;P1;durP2;ratioP2;P2;SDS_P1;SDS_P2;PMS_P1;PMS_P2;Temp;Humidity;BMP_temperature;BMP_pressure;BME280_temperature;BME280_humidity;BME280_pressure;Samples;Min_cycle;Max_cycle;Signal;HPM_P1;HPM_P2
2021/08/02 00:00:22;;;;;;;;;;;;;;;;;;5086375;28;39484;-77
2021/08/02 00:03:07;;;;;;;6.38;1.10;;;;;;;;;;5087706;28;37921;-78
2021/08/02 00:05:39;;;;;;;5.03;1.10;;;;;;;;;;5069963;28;47179;-78
2021/08/02 00:08:05;;;;;;;4.47;1.02;;;;;;;;;;5068264;28;38268;-77
2021/08/02 00:10:33;;;;;;;2.72;1.00;;;;;;;;;;5068400;28;39028;-77
2021/08/02 00:13:01;;;;;;;4.53;1.17;;;;;;;;;;5069722;28;37051;-78
2021/08/02 00:15:28;;;;;;;6.18;1.10;;;;;;;;;;5061279;28;47461;-78
2021/08/02 00:17:55;;;;;;;2.90;0.77;;;;;;;;;;5088635;28;39282;-78
2021/08/02 00:20:26;;;;;;;4.53;1.00;;;;;;;;;;5087630;28;38338;-78
2021/08/02 00:22:54;;;;;;;2.58;1.00;;;;;;;;;;5088641;28;36741;-78
2021/08/02 00:25:20;;;;;;;2.58;0.90;;;;;;;;;;5088449;28;39133;-78
2021/08/02 00:27:47;;;;;;;4.72;1.38;;;;;;;;;;5071562;28;40245;-78
2021/08/02 00:30:13;;;;;;;5.28;1.42;;;;;;;;;;5069593;28;39007;-77
2021/08/02 00:32:39;;;;;;;3.58;0.95;;;;;;;;;;5089109;28;36248;-79
2021/08/02 00:35:06;;;;;;;2.53;1.00;;;;;;;;;;5067635;28;39355;-77
2021/08/02 00:37:52;;;;;;;4.18;1.33;;;;;;;;;;5088116;28;39833;-77
2021/08/02 00:40:34;;;;;;;6.20;1.67;;;;;;;;;;5069584;28;39683;-78
2021/08/02 00:43:19;;;;;;;3.08;1.27;;;;;;;;;;5074519;28;36716;-77
2021/08/02 00:45:46;;;;;;;5.70;1.20;;;;;;;;;;5086260;28;47364;-78
2021/08/02 00:48:15;;;;;;;4.78;1.20;;;;;;;;;;5076790;28;39220;-77
2021/08/02 00:50:43;;;;;;;3.83;1.02;;;;;;;;;;5086976;28;39303;-78
2021/08/02 00:53:09;;;;;;;3.80;1.20;;;;;;;;;;5068771;28;37712;-77
2021/08/02 00:55:37;;;;;;;4.85;1.13;;;;;;;;;;5066263;28;39491;-78
2021/08/02 00:58:07;;;;;;;4.68;1.40;;;;;;;;;;5067908;28;39171;-77
2021/08/02 01:00:33;;;;;;;2.50;0.90;;;;;;;;;;5067283;28;37807;-78
2021/08/02 01:03:03;;;;;;;5.10;1.08;;;;;;;;;;5069868;28;37970;-78
2021/08/02 01:05:30;;;;;;;3.20;1.08;;;;;;;;;;5070486;28;49196;-79
2021/08/02 01:07:57;;;;;;;2.33;0.90;;;;;;;;;;5085049;28;38766;-78
2021/08/02 01:10:24;;;;;;;2.55;0.85;;;;;;;;;;5070590;28;38836;-78
2021/08/02 01:12:52;;;;;;;2.60;0.95;;;;;;;;;;5089108;28;37867;-78
2021/08/02 01:15:19;;;;;;;3.85;1.27;;;;;;;;;;5088903;28;39064;-78
2021/08/02 01:17:47;;;;;;;5.03;1.00;;;;;;;;;;5089232;28;38784;-78
2021/08/02 01:20:14;;;;;;;2.58;0.77;;;;;;;;;;5088484;28;38306;-78
2021/08/02 01:22:41;;;;;;;4.80;1.00;;;;;;;;;;5089431;28;37034;-79
2021/08/02 01:25:27;;;;;;;2.92;1.00;;;;;;;;;;5088343;28;39728;-78
2021/08/02 01:28:12;;;;;;;3.08;1.08;;;;;;;;;;5088373;28;38372;-79
2021/08/02 01:30:39;;;;;;;2.22;1.00;;;;;;;;;;5085369;28;46917;-78
2021/08/02 01:33:05;;;;;;;5.20;1.40;;;;;;;;;;5086951;28;37056;-77
2021/08/02 01:35:33;;;;;;;4.90;1.00;;;;;;;;;;5064885;28;39747;-78
2021/08/02 01:37:59;;;;;;;2.60;0.90;;;;;;;;;;5072104;28;38896;-78
2021/08/02 01:40:27;;;;;;;1.70;0.90;;;;;;;;;;5084214;27;38385;-77
2021/08/02 01:42:53;;;;;;;6.00;1.60;;;;;;;;;;5083791;28;37682;-78
2021/08/02 01:45:20;;;;;;;3.30;1.05;;;;;;;;;;5065483;28;39540;-78
2021/08/02 01:47:46;;;;;;;1.90;0.80;;;;;;;;;;5067897;28;37987;-78
2021/08/02 01:50:18;;;;;;;2.97;0.90;;;;;;;;;;5066844;28;39207;-78
2021/08/02 01:53:04;;;;;;;2.50;0.80;;;;;;;;;;5083407;28;36642;-78
2021/08/02 01:55:31;;;;;;;2.53;1.10;;;;;;;;;;5086029;28;47016;-78
2021/08/02 01:58:03;;;;;;;2.20;0.85;;;;;;;;;;5083793;28;38686;-77
2021/08/02 02:00:31;;;;;;;4.22;1.08;;;;;;;;;;5066464;28;48929;-77
2021/08/02 02:03:12;;;;;;;4.50;1.05;;;;;;;;;;5069245;28;37263;-78
2021/08/02 02:05:39;;;;;;;2.33;0.93;;;;;;;;;;5049715;28;47481;-78
2021/08/02 02:08:05;;;;;;;3.20;1.02;;;;;;;;;;5069670;28;39637;-77
2021/08/02 02:10:38;;;;;;;3.55;1.10;;;;;;;;;;5088734;28;39641;-77
2021/08/02 02:13:05;;;;;;;;;;;;;;;;;;5068893;28;37283;-77
2021/08/02 02:15:32;;;;;;;2.47;1.17;;;;;;;;;;5087411;28;40008;-78
2021/08/02 02:18:00;;;;;;;9.13;1.40;;;;;;;;;;5088557;28;38175;-77
2021/08/02 02:20:27;;;;;;;5.05;1.38;;;;;;;;;;5067923;28;39294;-78
2021/08/02 02:22:53;;;;;;;4.75;1.48;;;;;;;;;;5069571;28;37760;-78
2021/08/02 02:25:20;;;;;;;3.17;1.10;;;;;;;;;;5087550;28;38518;-77
2021/08/02 02:27:46;;;;;;;3.28;1.23;;;;;;;;;;5088369;28;38887;-78
2021/08/02 02:30:13;;;;;;;4.30;1.30;;;;;;;;;;5086116;28;39188;-78
2021/08/02 02:32:40;;;;;;;3.03;0.90;;;;;;;;;;5087136;28;37201;-78
2021/08/02 02:35:06;;;;;;;4.13;1.00;;;;;;;;;;5077182;28;40733;-77
2021/08/02 02:37:33;;;;;;;4.28;1.45;;;;;;;;;;5085426;28;39858;-77
2021/08/02 02:39:59;;;;;;;2.85;1.00;;;;;;;;;;5072617;28;39205;-78
2021/08/02 02:42:26;;;;;;;5.50;1.30;;;;;;;;;;5066802;28;37929;-79
2021/08/02 02:44:53;;;;;;;2.38;0.95;;;;;;;;;;5086394;28;39045;-78
2021/08/02 02:47:19;;;;;;;3.58;1.20;;;;;;;;;;5086816;28;38461;-79
2021/08/02 02:49:47;;;;;;;3.33;1.38;;;;;;;;;;5086559;28;38218;-78
2021/08/02 02:52:14;;;;;;;3.38;1.42;;;;;;;;;;5073672;28;37626;-77
2021/08/02 02:54:41;;;;;;;2.85;1.20;;;;;;;;;;5066231;28;39594;-77
2021/08/02 02:57:07;;;;;;;6.63;1.30;;;;;;;;;;5066046;28;38787;-77
2021/08/02 02:59:34;;;;;;;1.95;0.98;;;;;;;;;;5066572;28;39345;-78
2021/08/02 03:02:01;;;;;;;3.55;1.30;;;;;;;;;;5065986;28;37179;-77
2021/08/02 03:04:32;;;;;;;4.80;1.33;;;;;;;;;;5070449;28;47520;-78
2021/08/02 03:07:00;;;;;;;3.45;1.20;;;;;;;;;;5068008;28;38866;-77
2021/08/02 03:09:28;;;;;;;4.03;1.33;;;;;;;;;;5076445;28;38926;-77
2021/08/02 03:11:54;;;;;;;5.47;1.20;;;;;;;;;;5048166;28;37342;-77
2021/08/02 03:14:21;;;;;;;2.00;1.13;;;;;;;;;;5048706;28;39468;-77
2021/08/02 03:16:47;;;;;;;2.80;1.30;;;;;;;;;;5049127;28;39760;-78
2021/08/02 03:19:13;;;;;;;6.07;1.70;;;;;;;;;;5067120;28;37911;-77
2021/08/02 03:21:40;;;;;;;4.10;1.23;;;;;;;;;;5071732;28;37625;-77
2021/08/02 03:24:12;;;;;;;5.07;1.25;;;;;;;;;;5085586;28;39616;-77
2021/08/02 03:27:02;;;;;;;3.88;1.00;;;;;;;;;;5085077;28;39822;-78
2021/08/02 03:29:30;;;;;;;5.00;1.20;;;;;;;;;;5083209;28;47025;-77
2021/08/02 03:31:57;;;;;;;2.53;1.00;;;;;;;;;;5089130;28;36771;-78
2021/08/02 03:34:26;;;;;;;3.28;0.95;;;;;;;;;;5087288;28;38706;-78
2021/08/02 03:36:53;;;;;;;3.20;0.85;;;;;;;;;;5082221;28;39161;-78
2021/08/02 03:39:22;;;;;;;2.53;0.80;;;;;;;;;;5079876;28;38991;-78
2021/08/02 03:41:49;;;;;;;7.15;1.10;;;;;;;;;;5069367;28;36940;-77
2021/08/02 03:44:15;;;;;;;3.80;1.13;;;;;;;;;;5083183;28;39026;-78
2021/08/02 03:46:42;;;;;;;5.25;1.10;;;;;;;;;;5088527;28;39620;-78
2021/08/02 03:49:09;;;;;;;4.38;1.38;;;;;;;;;;5087882;28;38536;-78
2021/08/02 03:51:37;;;;;;;3.90;1.20;;;;;;;;;;5087175;28;38333;-78
2021/08/02 03:54:04;;;;;;;2.75;1.10;;;;;;;;;;5087461;28;38993;-77
2021/08/02 03:56:30;;;;;;;2.60;1.25;;;;;;;;;;5087461;28;39858;-77
2021/08/02 03:58:57;;;;;;;1.48;1.00;;;;;;;;;;5071739;28;38605;-78
2021/08/02 04:01:23;;;;;;;5.32;1.33;;;;;;;;;;5070032;28;37055;-78
2021/08/02 04:03:49;;;;;;;3.22;1.20;;;;;;;;;;5090287;28;39475;-78
2021/08/02 04:06:16;;;;;;;5.35;1.55;;;;;;;;;;5069504;28;38604;-78
2021/08/02 04:08:42;;;;;;;3.38;1.05;;;;;;;;;;5086171;28;38281;-77
2021/08/02 04:11:08;;;;;;;6.28;1.40;;;;;;;;;;5069313;28;36785;-77
2021/08/02 04:13:35;;;;;;;4.63;1.33;;;;;;;;;;5083703;28;39552;-77
2021/08/02 04:16:01;;;;;;;4.75;1.13;;;;;;;;;;5088030;28;38073;-78
2021/08/02 04:18:27;;;;;;;3.03;1.00;;;;;;;;;;5071080;28;47432;-77
2021/08/02 04:20:55;;;;;;;6.22;1.20;;;;;;;;;;5088318;28;37471;-77
2021/08/02 04:23:22;;;;;;;5.10;1.33;;;;;;;;;;5088110;28;37688;-77
2021/08/02 04:25:48;;;;;;;4.20;1.50;;;;;;;;;;5089404;28;38832;-77
2021/08/02 04:28:15;;;;;;;2.95;1.23;;;;;;;;;;5089359;28;37890;-78
2021/08/02 04:30:41;;;;;;;4.85;1.30;;;;;;;;;;5070093;28;36117;-77
2021/08/02 04:33:07;;;;;;;6.07;1.52;;;;;;;;;;5070913;28;39032;-77
2021/08/02 04:35:34;;;;;;;6.45;1.67;;;;;;;;;;5080574;28;38021;-77
2021/08/02 04:38:00;;;;;;;4.90;1.52;;;;;;;;;;5087294;28;39085;-77
2021/08/02 04:40:26;;;;;;;5.55;1.65;;;;;;;;;;5070605;28;36479;-77
2021/08/02 04:42:53;;;;;;;4.28;1.40;;;;;;;;;;5070005;28;38496;-78
2021/08/02 04:45:19;;;;;;;4.43;1.42;;;;;;;;;;5087905;28;39551;-77
2021/08/02 04:47:45;;;;;;;4.88;1.50;;;;;;;;;;5088729;28;38153;-78
2021/08/02 04:50:12;;;;;;;7.38;2.08;;;;;;;;;;5068288;28;37468;-78
2021/08/02 04:52:39;;;;;;;5.60;1.67;;;;;;;;;;5078641;28;38412;-77
2021/08/02 04:55:05;;;;;;;5.15;1.70;;;;;;;;;;5048864;28;39681;-77
2021/08/02 04:57:32;;;;;;;4.10;1.90;;;;;;;;;;5049980;28;38155;-77
2021/08/02 04:59:59;;;;;;;3.50;2.20;;;;;;;;;;5050533;28;37519;-78
2021/08/02 05:02:25;;;;;;;5.38;1.77;;;;;;;;;;5048625;28;39851;-77
2021/08/02 05:04:52;;;;;;;4.82;1.98;;;;;;;;;;5082279;28;38710;-77
2021/08/02 05:07:18;;;;;;;5.22;2.00;;;;;;;;;;5088462;27;37984;-77
2021/08/02 05:09:44;;;;;;;4.35;1.88;;;;;;;;;;5058786;28;37500;-77
2021/08/02 05:12:11;;;;;;;7.63;2.20;;;;;;;;;;5066592;28;38905;-77
2021/08/02 05:14:37;;;;;;;4.72;1.98;;;;;;;;;;5070065;28;39312;-76
2021/08/02 05:17:04;;;;;;;5.60;2.45;;;;;;;;;;5059114;28;39469;-77
2021/08/02 05:19:30;;;;;;;3.55;1.92;;;;;;;;;;5070108;28;35721;-79
2021/08/02 05:21:57;;;;;;;4.45;1.92;;;;;;;;;;5088550;28;38689;-76
2021/08/02 05:24:23;;;;;;;4.43;1.80;;;;;;;;;;5087332;28;39313;-77
2021/08/02 05:26:49;;;;;;;4.82;1.90;;;;;;;;;;5087143;28;38650;-77
2021/08/02 05:29:16;;;;;;;6.72;1.70;;;;;;;;;;5087915;28;37901;-77
2021/08/02 05:31:42;;;;;;;3.13;1.80;;;;;;;;;;5070500;28;39372;-77
2021/08/02 05:34:11;;;;;;;1.83;1.13;;;;;;;;;;5085855;28;38522;-78
2021/08/02 05:36:38;;;;;;;3.35;1.48;;;;;;;;;;5060921;28;39992;-77
2021/08/02 05:39:05;;;;;;;8.02;2.42;;;;;;;;;;5079029;28;38757;-78
2021/08/02 05:41:31;;;;;;;2.75;0.95;;;;;;;;;;5048309;28;40293;-77
2021/08/02 05:43:58;;;;;;;3.33;1.20;;;;;;;;;;5077146;28;37990;-77
2021/08/02 05:46:24;;;;;;;2.55;1.00;;;;;;;;;;5085153;28;38842;-77
2021/08/02 05:48:50;;;;;;;4.10;1.20;;;;;;;;;;5089258;28;37078;-77
2021/08/02 05:51:17;;;;;;;5.28;1.10;;;;;;;;;;5084711;28;39117;-77
2021/08/02 05:53:43;;;;;;;5.05;1.10;;;;;;;;;;5087167;28;39554;-77
2021/08/02 05:56:11;;;;;;;3.90;1.00;;;;;;;;;;5085312;28;39727;-77
2021/08/02 05:58:38;;;;;;;6.28;1.05;;;;;;;;;;5089099;28;37626;-77
2021/08/02 06:01:05;;;;;;;3.30;0.85;;;;;;;;;;5086287;28;40079;-77
2021/08/02 06:03:31;;;;;;;4.90;0.80;;;;;;;;;;5088883;28;38323;-76
2021/08/02 06:05:59;;;;;;;6.07;0.80;;;;;;;;;;5086280;28;38669;-77
2021/08/02 06:08:25;;;;;;;4.95;1.60;;;;;;;;;;5087245;28;37894;-77
2021/08/02 06:10:52;;;;;;;3.40;1.00;;;;;;;;;;5070065;28;39079;-78
2021/08/02 06:13:18;;;;;;;2.63;0.73;;;;;;;;;;5069620;28;39188;-78
2021/08/02 06:15:46;;;;;;;4.10;0.80;;;;;;;;;;5088194;28;38195;-77
2021/08/02 06:18:12;;;;;;;3.17;0.90;;;;;;;;;;5088146;28;37603;-77
2021/08/02 06:20:38;;;;;;;5.25;1.10;;;;;;;;;;5087871;28;39764;-77
2021/08/02 06:23:05;;;;;;;3.17;0.80;;;;;;;;;;5087357;28;38746;-77
2021/08/02 06:25:31;;;;;;;5.93;1.00;;;;;;;;;;5089508;28;37662;-77
2021/08/02 06:27:57;;;;;;;1.60;0.80;;;;;;;;;;5090153;28;37066;-78
2021/08/02 06:30:24;;;;;;;3.65;1.58;;;;;;;;;;5077101;28;38587;-77
2021/08/02 06:32:50;;;;;;;2.25;0.70;;;;;;;;;;5068351;28;38846;-78
2021/08/02 06:35:17;;;;;;;2.67;0.80;;;;;;;;;;5069268;28;39424;-78
2021/08/02 06:37:43;;;;;;;3.22;0.80;;;;;;;;;;5075996;28;37754;-77
2021/08/02 06:40:13;;;;;;;4.70;0.85;;;;;;;;;;5079486;28;38904;-77
2021/08/02 06:42:40;;;;;;;2.50;0.93;;;;;;;;;;5088682;28;39607;-80
2021/08/02 06:45:07;;;;;;;1.77;0.73;;;;;;;;;;5085148;28;39353;-77
2021/08/02 06:47:33;;;;;;;1.42;0.68;;;;;;;;;;5088896;28;36561;-77
2021/08/02 06:50:00;;;;;;;2.53;0.60;;;;;;;;;;5068643;28;40819;-78
2021/08/02 06:52:26;;;;;;;2.58;0.60;;;;;;;;;;5060303;28;39209;-78
2021/08/02 06:54:52;;;;;;;3.80;1.10;;;;;;;;;;5067966;28;37741;-78
2021/08/02 06:57:19;;;;;;;1.85;0.68;;;;;;;;;;5080743;28;36930;-77
2021/08/02 06:59:45;;;;;;;3.13;0.70;;;;;;;;;;5070454;28;39255;-77
2021/08/02 07:02:12;;;;;;;4.97;0.77;;;;;;;;;;5067011;28;40254;-77
2021/08/02 07:04:38;;;;;;;3.83;0.82;;;;;;;;;;5087863;28;38114;-77
2021/08/02 07:07:05;;;;;;;3.33;0.80;;;;;;;;;;5086845;28;36758;-77
2021/08/02 07:09:31;;;;;;;1.92;0.85;;;;;;;;;;5078767;28;39615;-78
2021/08/02 07:11:57;;;;;;;2.13;1.05;;;;;;;;;;5066360;28;38364;-78
2021/08/02 07:14:24;;;;;;;6.20;0.80;;;;;;;;;;5068323;28;38474;-78
2021/08/02 07:16:50;;;;;;;3.78;0.73;;;;;;;;;;5066260;28;37486;-78
2021/08/02 07:19:16;;;;;;;2.47;0.75;;;;;;;;;;5067220;28;37630;-78
2021/08/02 07:21:43;;;;;;;2.65;1.20;;;;;;;;;;5069702;28;38474;-78
2021/08/02 07:24:09;;;;;;;4.72;0.68;;;;;;;;;;5069114;28;38874;-78
2021/08/02 07:26:35;;;;;;;1.65;0.70;;;;;;;;;;5087310;28;37410;-77
2021/08/02 07:29:04;;;;;;;1.83;0.70;;;;;;;;;;5088702;28;38233;-78
2021/08/02 07:31:30;;;;;;;4.25;0.82;;;;;;;;;;5068475;28;38717;-78
2021/08/02 07:33:56;;;;;;;4.25;0.90;;;;;;;;;;5085573;28;38017;-78
2021/08/02 07:36:23;;;;;;;3.47;0.80;;;;;;;;;;5078408;28;37020;-78
2021/08/02 07:38:49;;;;;;;3.10;0.70;;;;;;;;;;5052307;28;39362;-78
2021/08/02 07:41:16;;;;;;;2.13;0.70;;;;;;;;;;5083694;28;39162;-78
2021/08/02 07:43:44;;;;;;;2.22;0.70;;;;;;;;;;5086586;28;36838;-78
2021/08/02 07:46:11;;;;;;;5.22;1.20;;;;;;;;;;5080357;28;37485;-78
2021/08/02 07:48:38;;;;;;;2.97;0.77;;;;;;;;;;5067436;28;39052;-78
2021/08/02 07:51:04;;;;;;;1.75;0.77;;;;;;;;;;5063967;28;39154;-77
2021/08/02 07:53:31;;;;;;;3.75;0.90;;;;;;;;;;5081856;28;39170;-78
2021/08/02 07:55:57;;;;;;;3.92;0.95;;;;;;;;;;5086723;28;37090;-77
2021/08/02 07:58:23;;;;;;;3.78;0.95;;;;;;;;;;5085806;28;38341;-78
2021/08/02 08:00:50;;;;;;;1.20;0.70;;;;;;;;;;5086435;28;39559;-78
2021/08/02 08:03:19;;;;;;;2.90;0.77;;;;;;;;;;5086912;28;38879;-78
2021/08/02 08:05:46;;;;;;;4.18;0.90;;;;;;;;;;5086958;28;35847;-78
2021/08/02 08:08:12;;;;;;;2.45;0.70;;;;;;;;;;5085645;28;39808;-78
2021/08/02 08:10:39;;;;;;;3.47;0.93;;;;;;;;;;5074719;28;40337;-78
2021/08/02 08:13:07;;;;;;;1.00;0.40;;;;;;;;;;5085542;28;38745;-78
2021/08/02 08:15:34;;;;;;;2.03;0.75;;;;;;;;;;5089885;28;37982;-78
2021/08/02 08:18:00;;;;;;;2.25;1.20;;;;;;;;;;5090919;28;38447;-79
2021/08/02 08:20:26;;;;;;;2.13;0.70;;;;;;;;;;5088192;28;40201;-78
2021/08/02 08:22:53;;;;;;;3.20;0.90;;;;;;;;;;5090602;28;38921;-78
2021/08/02 08:25:20;;;;;;;2.25;0.68;;;;;;;;;;5088245;28;37301;-78
2021/08/02 08:27:46;;;;;;;2.55;0.70;;;;;;;;;;5090888;28;38877;-79
2021/08/02 08:30:14;;;;;;;2.55;0.80;;;;;;;;;;5069409;28;38753;-78
2021/08/02 08:32:40;;;;;;;1.85;0.75;;;;;;;;;;5090214;28;38327;-78
2021/08/02 08:35:07;;;;;;;2.40;0.63;;;;;;;;;;5081311;28;37796;-78
2021/08/02 08:37:33;;;;;;;1.50;0.73;;;;;;;;;;5081859;28;39743;-79
2021/08/02 08:39:59;;;;;;;2.25;1.00;;;;;;;;;;5078937;28;38923;-78
2021/08/02 08:42:26;;;;;;;1.95;0.80;;;;;;;;;;5087665;28;37623;-79
2021/08/02 08:44:52;;;;;;;3.05;0.93;;;;;;;;;;5088788;28;37388;-78
2021/08/02 08:47:18;;;;;;;4.32;0.82;;;;;;;;;;5089345;28;40329;-78
2021/08/02 08:49:46;;;;;;;3.78;0.90;;;;;;;;;;5090014;28;39338;-78
2021/08/02 08:52:14;;;;;;;6.18;1.10;;;;;;;;;;5082596;28;38419;-78
2021/08/02 08:54:42;;;;;;;2.55;0.70;;;;;;;;;;5069693;28;37122;-78
2021/08/02 08:57:12;;;;;;;4.35;1.00;;;;;;;;;;5065695;28;40967;-78
2021/08/02 08:59:45;;;;;;;3.15;0.90;;;;;;;;;;5067460;28;39154;-78
2021/08/02 09:02:11;;;;;;;2.00;0.68;;;;;;;;;;5075902;28;38752;-78
2021/08/02 09:04:37;;;;;;;2.60;0.80;;;;;;;;;;5089801;28;37604;-78
2021/08/02 09:07:05;;;;;;;3.25;0.90;;;;;;;;;;5088613;28;39531;-78
2021/08/02 09:09:33;;;;;;;2.30;0.93;;;;;;;;;;5081628;28;40121;-78
2021/08/02 09:12:03;;;;;;;4.07;1.02;;;;;;;;;;5066760;28;39544;-78
2021/08/02 09:14:30;;;;;;;3.22;1.20;;;;;;;;;;5067402;28;47229;-78
2021/08/02 09:17:00;;;;;;;3.65;0.85;;;;;;;;;;5069833;28;40073;-78
2021/08/02 09:19:38;;;;;;;3.25;0.90;;;;;;;;;;5079412;28;39731;-79
2021/08/02 09:22:04;;;;;;;4.82;0.70;;;;;;;;;;5070256;28;39993;-78
2021/08/02 09:24:31;;;;;;;4.13;1.08;;;;;;;;;;5069999;28;37452;-78
2021/08/02 09:26:57;;;;;;;4.50;0.77;;;;;;;;;;5066326;28;40555;-78
2021/08/02 09:29:34;;;;;;;2.13;0.80;;;;;;;;;;5083160;28;40207;-78
2021/08/02 09:32:00;;;;;;;3.20;0.63;;;;;;;;;;5066755;28;38939;-78
2021/08/02 09:34:27;;;;;;;1.42;0.77;;;;;;;;;;5072182;28;46968;-78
2021/08/02 09:36:56;;;;;;;2.60;0.77;;;;;;;;;;5078190;28;39204;-77
2021/08/02 09:39:27;;;;;;;2.80;0.73;;;;;;;;;;5070761;28;38799;-79
2021/08/02 09:42:01;;;;;;;2.10;0.80;;;;;;;;;;5089588;28;37890;-78
2021/08/02 09:44:28;;;;;;;3.42;0.80;;;;;;;;;;5070228;28;47098;-78
2021/08/02 09:46:58;;;;;;;3.47;0.80;;;;;;;;;;5086508;28;39436;-78
2021/08/02 09:49:25;;;;;;;1.88;0.73;;;;;;;;;;5088286;28;39294;-78
2021/08/02 09:51:52;;;;;;;3.50;0.85;;;;;;;;;;5085769;28;38924;-78
2021/08/02 09:54:23;;;;;;;3.63;0.90;;;;;;;;;;5087076;28;36652;-78
2021/08/02 09:56:50;;;;;;;0.95;0.70;;;;;;;;;;5070785;28;40823;-78
2021/08/02 09:59:17;;;;;;;1.77;0.55;;;;;;;;;;5088729;28;38083;-78
2021/08/02 10:01:43;;;;;;;2.25;0.80;;;;;;;;;;5089143;28;38759;-78
2021/08/02 10:04:10;;;;;;;3.72;0.70;;;;;;;;;;5089251;28;37032;-78
2021/08/02 10:06:37;;;;;;;1.15;0.60;;;;;;;;;;5088923;28;38769;-78
2021/08/02 10:09:03;;;;;;;3.35;0.90;;;;;;;;;;5068626;28;39312;-78
2021/08/02 10:11:32;;;;;;;1.83;0.65;;;;;;;;;;5087074;28;38515;-78
2021/08/02 10:13:58;;;;;;;3.05;0.63;;;;;;;;;;5087586;28;37482;-78
2021/08/02 10:16:28;;;;;;;3.80;0.90;;;;;;;;;;5086324;28;39467;-78
2021/08/02 10:19:01;;;;;;;3.15;0.70;;;;;;;;;;5071324;28;39545;-78
2021/08/02 10:21:36;;;;;;;3.97;0.75;;;;;;;;;;5068581;28;47278;-78
2021/08/02 10:24:09;;;;;;;1.83;0.75;;;;;;;;;;5089036;28;36649;-77
2021/08/02 10:26:36;;;;;;;2.80;1.10;;;;;;;;;;5068955;28;40891;-78
2021/08/02 10:29:03;;;;;;;4.07;0.90;;;;;;;;;;5085930;28;39247;-78
2021/08/02 10:31:41;;;;;;;2.65;0.70;;;;;;;;;;5068135;28;38654;-78
2021/08/02 10:34:14;;;;;;;1.80;0.70;;;;;;;;;;5069688;28;38154;-78
2021/08/02 10:36:41;;;;;;;2.83;0.90;;;;;;;;;;5071565;28;39597;-78
2021/08/02 10:39:07;;;;;;;1.48;0.60;;;;;;;;;;5085188;28;39623;-78
2021/08/02 10:41:33;;;;;;;2.10;0.60;;;;;;;;;;5064509;28;38313;-78
2021/08/02 10:44:12;;;;;;;5.18;1.30;;;;;;;;;;5068444;28;37366;-78
2021/08/02 10:46:39;;;;;;;3.28;0.95;;;;;;;;;;5066003;28;49013;-78
2021/08/02 10:49:12;;;;;;;2.00;0.73;;;;;;;;;;5065150;28;39423;-78
2021/08/02 10:51:52;;;;;;;1.63;0.75;;;;;;;;;;5065657;28;39241;-78
2021/08/02 10:54:19;;;;;;;4.45;1.20;;;;;;;;;;5084713;28;37260;-78
2021/08/02 10:56:48;;;;;;;2.20;0.70;;;;;;;;;;5087420;28;38775;-78
2021/08/02 10:59:18;;;;;;;3.95;0.88;;;;;;;;;;5085233;28;38876;-78
2021/08/02 11:01:47;;;;;;;1.75;0.60;;;;;;;;;;5087243;28;38171;-78
2021/08/02 11:04:14;;;;;;;2.35;0.88;;;;;;;;;;5086820;28;37628;-78
2021/08/02 11:06:40;;;;;;;1.67;0.60;;;;;;;;;;5086936;28;39572;-79
2021/08/02 11:09:07;;;;;;;3.75;1.00;;;;;;;;;;5069803;28;38919;-78
2021/08/02 11:11:34;;;;;;;3.88;0.80;;;;;;;;;;5087091;28;38713;-78
2021/08/02 11:14:07;;;;;;;3.15;0.90;;;;;;;;;;5094546;28;37090;-79
2021/08/02 11:16:41;;;;;;;3.55;0.90;;;;;;;;;;5074244;28;47313;-79
2021/08/02 11:19:14;;;;;;;3.58;0.80;;;;;;;;;;5092977;28;39276;-78
2021/08/02 11:21:40;;;;;;;1.30;0.65;;;;;;;;;;5076524;28;38429;-79
2021/08/02 11:24:10;;;;;;;2.47;0.70;;;;;;;;;;5075581;28;38554;-78
2021/08/02 11:26:47;;;;;;;4.65;0.90;;;;;;;;;;5075049;28;39335;-78
2021/08/02 11:29:17;;;;;;;6.32;1.17;;;;;;;;;;5094481;28;38984;-78
2021/08/02 11:31:52;;;;;;;2.58;0.93;;;;;;;;;;5074252;28;38858;-79
2021/08/02 11:34:19;;;;;;;2.97;1.05;;;;;;;;;;5069019;28;37555;-78
2021/08/02 11:36:46;;;;;;;2.95;0.77;;;;;;;;;;5084700;28;39231;-79
2021/08/02 11:39:15;;;;;;;3.13;0.70;;;;;;;;;;5073790;28;38477;-80
2021/08/02 11:41:42;;;;;;;1.10;0.60;;;;;;;;;;5041992;28;39045;-79
2021/08/02 11:44:08;;;;;;;3.03;0.90;;;;;;;;;;5037468;28;36514;-79
2021/08/02 11:46:35;;;;;;;2.30;0.90;;;;;;;;;;5051717;28;40080;-78
2021/08/02 11:49:02;;;;;;;4.30;0.90;;;;;;;;;;5054371;28;38270;-77
2021/08/02 11:51:28;;;;;;;3.35;0.90;;;;;;;;;;5053363;28;38739;-78
2021/08/02 11:53:56;;;;;;;2.33;0.80;;;;;;;;;;5038720;28;37276;-78
2021/08/02 11:56:32;;;;;;;1.95;0.60;;;;;;;;;;5054053;28;39998;-79
2021/08/02 11:58:58;;;;;;;1.90;0.52;;;;;;;;;;5035386;28;39526;-79
2021/08/02 12:01:25;;;;;;;4.78;0.85;;;;;;;;;;5031841;28;39740;-78
2021/08/02 12:03:56;;;;;;;2.42;0.70;;;;;;;;;;5035388;28;37828;-78
2021/08/02 12:06:22;;;;;;;4.60;0.80;;;;;;;;;;5031261;28;39672;-79
2021/08/02 12:08:53;;;;;;;3.25;0.90;;;;;;;;;;5040935;28;39909;-78
2021/08/02 12:11:19;;;;;;;1.98;0.60;;;;;;;;;;5050049;28;36758;-76
2021/08/02 12:13:47;;;;;;;1.35;0.50;;;;;;;;;;5033947;28;38332;-77
2021/08/02 12:16:24;;;;;;;1.85;0.90;;;;;;;;;;5030660;28;39631;-76
2021/08/02 12:18:50;;;;;;;2.50;0.60;;;;;;;;;;5034324;28;39372;-78
2021/08/02 12:21:22;;;;;;;2.55;0.80;;;;;;;;;;5033243;28;37975;-77
2021/08/02 12:23:48;;;;;;;2.83;0.73;;;;;;;;;;5033507;28;37363;-77
2021/08/02 12:26:16;;;;;;;4.20;0.77;;;;;;;;;;5043016;28;39728;-77
2021/08/02 12:28:43;;;;;;;1.65;0.70;;;;;;;;;;5069950;28;39312;-78
2021/08/02 12:31:13;;;;;;;2.58;0.90;;;;;;;;;;5053133;28;38092;-80
2021/08/02 12:33:40;;;;;;;2.65;0.90;;;;;;;;;;5069497;28;37240;-79
2021/08/02 12:36:06;;;;;;;1.15;0.70;;;;;;;;;;5055321;28;39874;-77
2021/08/02 12:38:33;;;;;;;1.52;0.75;;;;;;;;;;5044098;28;38593;-77
2021/08/02 12:41:00;;;;;;;4.88;0.95;;;;;;;;;;5062708;28;38419;-77
2021/08/02 12:43:26;;;;;;;1.38;0.60;;;;;;;;;;5083055;28;37375;-78
2021/08/02 12:45:52;;;;;;;2.63;1.17;;;;;;;;;;5082307;28;39819;-77
2021/08/02 12:48:19;;;;;;;2.55;0.82;;;;;;;;;;5094348;28;40319;-77
2021/08/02 12:50:45;;;;;;;4.15;1.17;;;;;;;;;;5074244;28;40317;-78
2021/08/02 12:53:11;;;;;;;2.20;0.80;;;;;;;;;;5093909;28;37078;-78
2021/08/02 12:55:38;;;;;;;2.65;0.60;;;;;;;;;;5092308;28;38686;-78
2021/08/02 12:58:04;;;;;;;1.67;0.50;;;;;;;;;;5092353;28;38037;-77
2021/08/02 13:00:30;;;;;;;2.05;0.60;;;;;;;;;;5090346;28;38523;-78
2021/08/02 13:02:57;;;;;;;1.85;0.50;;;;;;;;;;5075683;28;37123;-78
2021/08/02 13:05:23;;;;;;;2.58;0.80;;;;;;;;;;5093102;28;39984;-77
2021/08/02 13:07:49;;;;;;;3.15;1.00;;;;;;;;;;5094255;28;38887;-78
2021/08/02 13:10:16;;;;;;;4.25;0.70;;;;;;;;;;5084308;28;38342;-78
2021/08/02 13:12:42;;;;;;;1.40;0.60;;;;;;;;;;5055324;28;38660;-78
2021/08/02 13:15:09;;;;;;;1.48;0.70;;;;;;;;;;5072879;28;38623;-77
2021/08/02 13:17:35;;;;;;;2.58;0.80;;;;;;;;;;5084442;28;38710;-78
2021/08/02 13:20:02;;;;;;;2.30;0.57;;;;;;;;;;5093076;28;38005;-78
2021/08/02 13:22:40;;;;;;;1.65;0.60;;;;;;;;;;5091766;28;37255;-78
2021/08/02 13:27:53;;;;;;;1.55;0.77;;;;;;;;;;5092843;28;40055;-78
2021/08/02 13:30:20;;;;;;;3.30;1.00;;;;;;;;;;5091190;28;38085;-78
2021/08/02 13:32:46;;;;;;;4.28;0.85;;;;;;;;;;5091266;28;36978;-78
2021/08/02 13:35:13;;;;;;;2.20;0.70;;;;;;;;;;5063267;28;39218;-78
2021/08/02 13:37:40;;;;;;;2.45;0.70;;;;;;;;;;5080831;28;38593;-78
2021/08/02 13:40:06;;;;;;;4.63;1.00;;;;;;;;;;5085073;28;38457;-78
2021/08/02 13:42:33;;;;;;;2.75;0.70;;;;;;;;;;5070822;28;37298;-78
2021/08/02 13:45:00;;;;;;;2.53;0.90;;;;;;;;;;5080291;28;38939;-77
2021/08/02 13:47:28;;;;;;;3.08;0.63;;;;;;;;;;5089872;28;38357;-78
2021/08/02 13:49:54;;;;;;;2.17;0.68;;;;;;;;;;5090537;28;38555;-78
2021/08/02 13:52:21;;;;;;;3.90;0.80;;;;;;;;;;5090153;28;36814;-78
2021/08/02 13:54:47;;;;;;;1.58;0.70;;;;;;;;;;5086152;28;38950;-78
2021/08/02 13:57:13;;;;;;;2.75;0.93;;;;;;;;;;5087050;28;38671;-78
2021/08/02 13:59:40;;;;;;;3.42;0.70;;;;;;;;;;5083533;28;38319;-78
2021/08/02 14:02:07;;;;;;;1.80;0.60;;;;;;;;;;5090065;28;37287;-78
2021/08/02 14:04:33;;;;;;;2.17;0.80;;;;;;;;;;5072274;28;39492;-78
2021/08/02 14:06:59;;;;;;;2.28;0.68;;;;;;;;;;5087487;28;39479;-78
2021/08/02 14:09:26;;;;;;;2.35;0.80;;;;;;;;;;5087355;28;38299;-78
2021/08/02 14:11:59;;;;;;;2.65;0.82;;;;;;;;;;5068906;28;37027;-78
2021/08/02 14:14:29;;;;;;;4.57;1.10;;;;;;;;;;5068505;28;39751;-78
2021/08/02 14:16:58;;;;;;;1.48;0.70;;;;;;;;;;5082823;28;38910;-78
2021/08/02 14:19:29;;;;;;;3.58;0.93;;;;;;;;;;5069403;28;37836;-78
2021/08/02 14:22:00;;;;;;;3.05;0.90;;;;;;;;;;5087238;28;36898;-78
2021/08/02 14:24:27;;;;;;;2.55;0.77;;;;;;;;;;5086289;28;39700;-79
2021/08/02 14:26:53;;;;;;;2.38;0.70;;;;;;;;;;5088617;28;39932;-78
2021/08/02 14:29:20;;;;;;;2.60;0.80;;;;;;;;;;5069931;28;38517;-77
2021/08/02 14:31:47;;;;;;;3.28;1.10;;;;;;;;;;5069329;28;37716;-77
2021/08/02 14:34:14;;;;;;;3.63;1.02;;;;;;;;;;5069376;28;39169;-78
2021/08/02 14:36:44;;;;;;;1.45;0.65;;;;;;;;;;5072853;28;39562;-79
2021/08/02 14:39:12;;;;;;;1.65;0.98;;;;;;;;;;5082311;28;38587;-79
2021/08/02 14:41:46;;;;;;;1.10;0.80;;;;;;;;;;5086251;28;20048;-78
2021/08/02 14:44:14;;;;;;;3.60;1.10;;;;;;;;;;5066500;28;39293;-78
2021/08/02 14:46:41;;;;;;;3.28;0.73;;;;;;;;;;5049751;28;40332;-79
2021/08/02 14:49:09;;;;;;;2.15;0.77;;;;;;;;;;5049693;28;38244;-79